Time;durP1;ratioP1;P1;durP2;ratioP2;P2;SDS_P1;SDS_P2;PMS_P1;PMS_P2;Temp;Humidity;BMP_temperature;BMP_pressure;BME280_temperature;BME280_humidity;BME280_pressure;Samples;Min_cycle;Max_cycle;Signal;HPM_P1;HPM_P2
2023/11/16 00:01:07;;;;;;;7.15;4.32;;;4.00;99.90;;;;;;5037474;28;20137;-80
2023/11/16 00:03:33;;;;;;;8.27;4.72;;;4.00;99.90;;;;;;5038060;28;20564;-77
2023/11/16 00:05:58;;;;;;;4.68;3.65;;;4.00;99.90;;;;;;5037778;28;20058;-80
2023/11/16 00:08:24;;;;;;;8.23;6.00;;;4.00;99.90;;;;;;4971443;28;20022;-77
2023/11/16 00:10:50;;;;;;;5.53;4.93;;;4.00;99.90;;;;;;5037902;28;20022;-81
2023/11/16 00:13:16;;;;;;;6.32;4.22;;;4.10;99.90;;;;;;4971307;28;20035;-80
2023/11/16 00:15:42;;;;;;;4.75;4.05;;;4.00;99.90;;;;;;4970777;28;20030;-80
2023/11/16 00:18:09;;;;;;;5.25;4.18;;;4.10;99.90;;;;;;4971282;28;20030;-77
2023/11/16 00:20:37;;;;;;;4.90;4.00;;;4.10;99.90;;;;;;4970867;28;21024;-80
2023/11/16 00:23:03;;;;;;;7.70;4.60;;;4.10;99.90;;;;;;5037575;28;20042;-81
2023/11/16 00:25:29;;;;;;;5.55;4.78;;;4.10;99.90;;;;;;4970804;28;20026;-77
2023/11/16 00:27:55;;;;;;;5.32;4.72;;;4.10;99.90;;;;;;4971324;28;20380;-81
2023/11/16 00:30:21;;;;;;;6.90;4.95;;;4.10;99.90;;;;;;5037527;28;20090;-80
2023/11/16 00:32:46;;;;;;;7.00;4.63;;;4.10;99.90;;;;;;4970987;28;20530;-77
2023/11/16 00:35:12;;;;;;;7.97;5.28;;;4.10;99.90;;;;;;5037302;28;20496;-77
2023/11/16 00:37:38;;;;;;;8.40;6.03;;;4.10;99.90;;;;;;5037944;28;20019;-77
2023/11/16 00:40:05;;;;;;;9.50;5.82;;;4.10;99.90;;;;;;4974367;28;20110;-77
2023/11/16 00:42:30;;;;;;;8.70;6.30;;;4.10;99.90;;;;;;5041235;28;20042;-77
2023/11/16 00:44:56;;;;;;;7.78;5.82;;;4.10;99.90;;;;;;5041336;28;20023;-77
2023/11/16 00:47:22;;;;;;;10.43;6.57;;;4.10;99.90;;;;;;5041734;28;20390;-80
2023/11/16 00:49:48;;;;;;;10.20;6.90;;;4.00;99.90;;;;;;4974169;28;20420;-76
2023/11/16 00:52:14;;;;;;;9.90;5.43;;;4.00;99.90;;;;;;5041759;28;20027;-77
2023/11/16 00:54:40;;;;;;;5.53;4.40;;;4.00;99.90;;;;;;5041047;28;20019;-80
2023/11/16 00:57:06;;;;;;;6.85;5.10;;;4.00;99.90;;;;;;5041314;28;20105;-80
2023/11/16 00:59:32;;;;;;;7.00;4.93;;;4.00;99.90;;;;;;5040916;28;20042;-80
2023/11/16 01:01:59;;;;;;;5.72;5.05;;;4.00;99.90;;;;;;4973816;28;20043;-80
2023/11/16 01:04:27;;;;;;;5.35;4.40;;;4.00;99.90;;;;;;4973794;28;20113;-80
2023/11/16 01:06:53;;;;;;;5.97;4.20;;;4.00;99.90;;;;;;4973980;28;20514;-77
2023/11/16 01:09:20;;;;;;;5.18;3.47;;;4.00;99.90;;;;;;5040775;28;20030;-80
2023/11/16 01:11:46;;;;;;;4.88;3.63;;;4.00;99.90;;;;;;4973916;28;20419;-81
2023/11/16 01:14:16;;;;;;;3.50;3.15;;;4.00;99.90;;;;;;5041115;28;20400;-77
2023/11/16 01:16:44;;;;;;;3.47;3.13;;;4.00;99.90;;;;;;5040844;28;20015;-77
2023/11/16 01:19:12;;;;;;;4.05;3.00;;;4.00;99.90;;;;;;5040799;28;20042;-80
2023/11/16 01:21:41;;;;;;;5.72;3.15;;;4.10;99.90;;;;;;4973584;28;20039;-80
2023/11/16 01:24:11;;;;;;;3.72;3.28;;;4.00;99.90;;;;;;4973658;28;20058;-77
2023/11/16 01:26:39;;;;;;;3.53;2.88;;;4.00;99.90;;;;;;5040635;28;20023;-77
2023/11/16 01:29:16;;;;;;;3.10;2.80;;;4.00;99.90;;;;;;5040606;28;20021;-80
2023/11/16 01:31:42;;;;;;;6.43;3.10;;;4.00;99.90;;;;;;4973490;28;20496;-80
2023/11/16 01:34:10;;;;;;;5.20;3.70;;;4.00;99.90;;;;;;4973749;28;20038;-80
2023/11/16 01:36:39;;;;;;;4.95;3.72;;;4.00;99.90;;;;;;4973298;28;20010;-80
2023/11/16 01:39:06;;;;;;;2.58;2.38;;;4.00;99.90;;;;;;5040419;28;20080;-77
2023/11/16 01:41:32;;;;;;;3.70;3.40;;;4.00;99.90;;;;;;5040282;28;20031;-77
2023/11/16 01:44:00;;;;;;;4.30;3.13;;;4.00;99.90;;;;;;4973456;28;20080;-80
2023/11/16 01:46:26;;;;;;;3.20;2.90;;;4.00;99.90;;;;;;4973351;28;20075;-77
2023/11/16 01:48:54;;;;;;;3.58;3.28;;;4.00;99.90;;;;;;4971420;28;20038;-77
2023/11/16 01:51:22;;;;;;;4.57;3.35;;;4.00;99.90;;;;;;5036315;28;20019;-77
2023/11/16 01:53:56;;;;;;;6.05;3.70;;;4.00;99.90;;;;;;5040095;28;20027;-81
2023/11/16 01:56:23;;;;;;;4.10;3.53;;;4.00;99.90;;;;;;5040180;28;20019;-80
2023/11/16 01:58:51;;;;;;;7.00;3.75;;;4.00;99.90;;;;;;4973019;28;20038;-81
2023/11/16 02:01:17;;;;;;;6.15;4.78;;;4.10;99.90;;;;;;4973177;28;20034;-76
2023/11/16 02:03:46;;;;;;;5.22;3.33;;;4.10;99.90;;;;;;5039707;28;20078;-81
2023/11/16 02:06:12;;;;;;;4.20;3.78;;;4.10;99.90;;;;;;4972910;28;20460;-81
2023/11/16 02:08:39;;;;;;;4.85;3.67;;;4.10;99.90;;;;;;5040041;28;20096;-81
2023/11/16 02:11:05;;;;;;;5.28;3.92;;;4.10;99.90;;;;;;5040215;28;20026;-81
2023/11/16 02:13:31;;;;;;;4.88;3.72;;;4.10;99.90;;;;;;4972987;28;20023;-78
2023/11/16 02:15:57;;;;;;;4.07;3.17;;;4.10;99.90;;;;;;5039955;28;20085;-80
2023/11/16 02:18:24;;;;;;;3.50;3.17;;;4.10;99.90;;;;;;4973092;28;20369;-81
2023/11/16 02:20:51;;;;;;;4.43;4.03;;;4.20;99.90;;;;;;4972891;28;20027;-81
2023/11/16 02:23:17;;;;;;;7.80;4.68;;;4.20;99.90;;;;;;5039671;28;20357;-76
2023/11/16 02:25:44;;;;;;;6.22;3.70;;;4.20;99.90;;;;;;5050153;28;20037;-76
2023/11/16 02:28:10;;;;;;;5.75;3.88;;;4.20;99.90;;;;;;4972871;28;20068;-77
2023/11/16 02:30:37;;;;;;;5.85;4.57;;;4.20;99.90;;;;;;5039409;28;20070;-77
2023/11/16 02:33:06;;;;;;;8.65;4.25;;;4.30;99.90;;;;;;5039620;28;20022;-80
2023/11/16 02:35:33;;;;;;;5.95;3.95;;;4.30;99.90;;;;;;4971614;28;20038;-81
2023/11/16 02:38:06;;;;;;;4.80;4.13;;;4.30;99.90;;;;;;4961555;28;20062;-81
2023/11/16 02:40:32;;;;;;;6.40;4.07;;;4.30;99.90;;;;;;4972566;28;20023;-77
2023/11/16 02:42:58;;;;;;;6.50;3.97;;;4.30;99.90;;;;;;4972536;28;20057;-81
2023/11/16 02:45:25;;;;;;;5.72;4.07;;;4.30;99.90;;;;;;5039065;28;20122;-81
2023/11/16 02:47:55;;;;;;;5.40;3.90;;;4.30;99.90;;;;;;5039410;28;20046;-81
2023/11/16 02:50:22;;;;;;;4.93;4.43;;;4.30;99.90;;;;;;4972501;28;20019;-81
2023/11/16 02:52:50;;;;;;;6.88;5.13;;;4.30;99.90;;;;;;4972502;28;20038;-81
2023/11/16 02:55:17;;;;;;;8.10;5.90;;;4.30;99.90;;;;;;4979937;28;20026;-77
2023/11/16 02:57:42;;;;;;;11.85;6.60;;;4.30;99.90;;;;;;5038987;28;20027;-77
2023/11/16 03:00:12;;;;;;;9.57;6.18;;;4.30;99.90;;;;;;5039020;28;20019;-77
2023/11/16 03:02:47;;;;;;;9.40;6.43;;;4.30;99.90;;;;;;5038864;28;20074;-80
2023/11/16 03:05:14;;;;;;;9.57;7.18;;;4.30;99.90;;;;;;4972213;28;20015;-80
2023/11/16 03:07:41;;;;;;;12.05;7.60;;;4.30;99.90;;;;;;5039040;28;20510;-80
2023/11/16 03:10:07;;;;;;;11.35;7.57;;;4.40;99.90;;;;;;4972138;28;20093;-81
2023/11/16 03:12:34;;;;;;;12.52;8.25;;;4.40;99.90;;;;;;4972270;28;20129;-77
2023/11/16 03:15:00;;;;;;;11.00;7.45;;;4.40;99.90;;;;;;5038568;28;20050;-77
2023/11/16 03:17:27;;;;;;;16.35;9.30;;;4.40;99.90;;;;;;5038709;28;20477;-81
2023/11/16 03:19:53;;;;;;;12.32;8.02;;;4.30;99.90;;;;;;5038879;28;20523;-80
2023/11/16 03:22:19;;;;;;;15.73;8.88;;;4.40;99.90;;;;;;4971900;28;20114;-81
2023/11/16 03:24:45;;;;;;;11.55;7.65;;;4.40;99.90;;;;;;4971722;28;20403;-77
2023/11/16 03:27:10;;;;;;;12.82;8.82;;;4.40;99.90;;;;;;5038431;28;20027;-77
2023/11/16 03:29:38;;;;;;;14.45;9.80;;;4.40;99.90;;;;;;5038426;28;20464;-77
2023/11/16 03:32:09;;;;;;;16.48;9.85;;;4.30;99.90;;;;;;5038356;28;20395;-81
2023/11/16 03:34:35;;;;;;;19.33;10.60;;;4.40;99.90;;;;;;5038402;28;20015;-81
2023/11/16 03:37:04;;;;;;;16.25;9.73;;;4.40;99.90;;;;;;5038401;28;20034;-81
2023/11/16 03:39:31;;;;;;;15.30;9.55;;;4.40;99.90;;;;;;4971839;28;20014;-77
2023/11/16 03:41:58;;;;;;;15.40;10.30;;;4.30;99.90;;;;;;5038027;28;20042;-81
2023/11/16 03:44:26;;;;;;;14.35;8.52;;;4.30;99.90;;;;;;5023050;28;20116;-77
2023/11/16 03:46:53;;;;;;;16.60;10.57;;;4.30;99.90;;;;;;4966225;28;20014;-77
2023/11/16 03:49:19;;;;;;;14.38;9.98;;;4.30;99.90;;;;;;5038296;28;20031;-81
2023/11/16 03:51:45;;;;;;;14.63;9.60;;;4.30;99.90;;;;;;4971383;28;20019;-81
2023/11/16 03:54:11;;;;;;;16.08;10.15;;;4.20;99.90;;;;;;5037700;28;20058;-77
2023/11/16 03:56:37;;;;;;;18.10;10.93;;;4.20;99.90;;;;;;5038058;28;20049;-81
2023/11/16 03:59:03;;;;;;;18.05;10.82;;;4.20;99.90;;;;;;4971346;28;20511;-77
2023/11/16 04:01:34;;;;;;;19.00;12.05;;;4.20;99.90;;;;;;5037705;28;20042;-78
2023/11/16 04:04:00;;;;;;;24.85;13.95;;;4.20;99.90;;;;;;5038073;28;20388;-77
2023/11/16 04:06:26;;;;;;;36.75;17.77;;;4.10;99.90;;;;;;4971242;28;20019;-77
2023/11/16 04:08:52;;;;;;;38.72;21.10;;;4.10;99.90;;;;;;5038034;28;20374;-76
2023/11/16 04:11:19;;;;;;;37.25;19.85;;;4.10;99.90;;;;;;4971106;28;20027;-77
2023/11/16 04:13:46;;;;;;;31.92;17.33;;;4.10;99.90;;;;;;4970833;28;20477;-81
2023/11/16 04:16:21;;;;;;;29.95;15.93;;;4.10;99.90;;;;;;4970878;28;20037;-76
2023/11/16 04:18:53;;;;;;;24.40;14.82;;;4.10;99.90;;;;;;5037954;28;20481;-76
2023/11/16 04:21:20;;;;;;;19.73;12.15;;;4.10;99.90;;;;;;4971271;28;20089;-77
2023/11/16 04:23:56;;;;;;;22.27;12.77;;;4.10;99.90;;;;;;5037845;28;20023;-76
2023/11/16 04:26:31;;;;;;;19.10;10.23;;;4.00;99.90;;;;;;4970836;28;20021;-76
2023/11/16 04:28:57;;;;;;;18.98;11.38;;;4.00;99.90;;;;;;4970850;28;20435;-77
2023/11/16 04:31:24;;;;;;;19.60;11.35;;;4.00;99.90;;;;;;5037729;28;20019;-81
2023/11/16 04:33:54;;;;;;;22.45;12.20;;;4.00;99.90;;;;;;4970878;28;20057;-77
2023/11/16 04:36:23;;;;;;;22.73;11.35;;;4.00;99.90;;;;;;5037531;28;20484;-80
2023/11/16 04:38:55;;;;;;;21.58;11.95;;;4.00;99.90;;;;;;5037795;28;20058;-81
2023/11/16 04:41:28;;;;;;;20.75;11.38;;;4.00;99.90;;;;;;4970902;28;20085;-81
2023/11/16 04:43:57;;;;;;;19.65;11.82;;;3.90;99.90;;;;;;4970769;28;20564;-77
2023/11/16 04:46:26;;;;;;;26.50;13.57;;;3.90;99.90;;;;;;5037493;28;20031;-77
2023/11/16 04:48:53;;;;;;;20.35;12.60;;;4.00;99.90;;;;;;4971177;28;20019;-81
2023/11/16 04:51:20;;;;;;;23.88;13.43;;;3.90;99.90;;;;;;5037421;28;20121;-76
2023/11/16 04:53:50;;;;;;;26.98;14.25;;;3.90;99.90;;;;;;5037061;28;20095;-76
2023/11/16 04:56:16;;;;;;;26.40;14.18;;;3.90;99.90;;;;;;5037703;28;20034;-80
2023/11/16 04:58:43;;;;;;;24.88;12.00;;;3.90;99.90;;;;;;5036717;28;20533;-80
2023/11/16 05:01:08;;;;;;;22.27;13.35;;;3.90;99.90;;;;;;5037184;28;20022;-80
2023/11/16 05:03:34;;;;;;;25.23;14.38;;;4.00;99.90;;;;;;4970591;28;20070;-81
2023/11/16 05:06:01;;;;;;;24.10;13.15;;;3.90;99.90;;;;;;4970634;28;20054;-77
2023/11/16 05:08:26;;;;;;;24.95;13.27;;;3.90;99.90;;;;;;5037187;28;20023;-77
2023/11/16 05:10:52;;;;;;;25.73;13.68;;;3.90;99.90;;;;;;5037152;28;20038;-77
2023/11/16 05:13:20;;;;;;;24.45;14.23;;;3.90;99.90;;;;;;4970330;28;20023;-80
2023/11/16 05:15:47;;;;;;;25.67;14.85;;;3.90;99.90;;;;;;4970528;28;20382;-76
2023/11/16 05:18:13;;;;;;;28.02;14.75;;;3.90;99.90;;;;;;5037032;28;20455;-80
2023/11/16 05:20:39;;;;;;;27.50;14.95;;;3.90;99.90;;;;;;5036982;28;20023;-76
2023/11/16 05:23:05;;;;;;;26.63;15.90;;;3.90;99.90;;;;;;4969867;28;20069;-80
2023/11/16 05:25:32;;;;;;;28.00;15.43;;;4.00;99.90;;;;;;4973583;28;20063;-79
2023/11/16 05:27:58;;;;;;;29.13;14.93;;;3.90;99.90;;;;;;5038450;28;20019;-76
2023/11/16 05:30:26;;;;;;;28.20;14.65;;;4.00;99.90;;;;;;4973791;28;20091;-80
2023/11/16 05:32:52;;;;;;;25.30;15.15;;;4.00;99.90;;;;;;4973105;28;20057;-80
2023/11/16 05:35:18;;;;;;;30.65;15.77;;;4.00;99.90;;;;;;5040022;28;20026;-80
2023/11/16 05:37:44;;;;;;;34.35;17.40;;;4.00;99.90;;;;;;4972268;28;20556;-80
2023/11/16 05:40:10;;;;;;;29.92;16.77;;;4.00;99.90;;;;;;5039157;28;20023;-81
2023/11/16 05:42:35;;;;;;;32.58;18.08;;;4.00;99.90;;;;;;4984562;28;20039;-76
2023/11/16 05:45:02;;;;;;;32.20;17.27;;;3.90;99.90;;;;;;4969953;28;20380;-76
2023/11/16 05:47:29;;;;;;;37.90;20.15;;;4.00;99.90;;;;;;4972676;28;20111;-81
2023/11/16 05:49:56;;;;;;;38.50;20.85;;;4.00;99.90;;;;;;4973167;28;20111;-76
2023/11/16 05:52:22;;;;;;;34.60;19.63;;;3.90;99.90;;;;;;4972783;28;20031;-76
2023/11/16 05:54:48;;;;;;;28.05;18.02;;;3.90;99.90;;;;;;4972837;28;20054;-81
2023/11/16 05:57:17;;;;;;;32.28;19.92;;;3.90;99.90;;;;;;5037679;28;20188;-80
2023/11/16 05:59:42;;;;;;;38.45;20.90;;;3.90;99.90;;;;;;4972192;28;20065;-80
2023/11/16 06:02:11;;;;;;;34.78;19.08;;;3.90;99.90;;;;;;4972474;28;20074;-81
2023/11/16 06:04:37;;;;;;;38.33;20.92;;;3.90;99.90;;;;;;4973249;28;20023;-81
2023/11/16 06:07:04;;;;;;;31.92;18.55;;;3.90;99.90;;;;;;4973049;28;20027;-78
2023/11/16 06:09:31;;;;;;;35.22;20.95;;;4.00;99.90;;;;;;5033411;28;20030;-77
2023/11/16 06:11:58;;;;;;;37.50;22.05;;;4.00;99.90;;;;;;5040164;28;20026;-77
2023/11/16 06:14:25;;;;;;;38.70;23.08;;;4.00;99.90;;;;;;5032917;28;20112;-81
2023/11/16 06:16:50;;;;;;;43.25;24.27;;;4.00;99.90;;;;;;4972120;28;20176;-82
2023/11/16 06:19:16;;;;;;;41.60;23.90;;;4.00;99.90;;;;;;5039011;28;20535;-81
2023/11/16 06:21:42;;;;;;;37.50;23.73;;;4.00;99.90;;;;;;4971805;28;20038;-82
2023/11/16 06:24:08;;;;;;;34.47;21.98;;;4.00;99.90;;;;;;4972178;28;20062;-81
2023/11/16 06:26:33;;;;;;;44.67;23.25;;;4.00;99.90;;;;;;5039911;28;20054;-81
2023/11/16 06:29:00;;;;;;;49.40;26.00;;;4.00;99.90;;;;;;4971899;28;20026;-81
2023/11/16 06:31:26;;;;;;;45.55;26.50;;;4.00;99.90;;;;;;4970333;28;20540;-82
2023/11/16 06:33:52;;;;;;;50.67;27.52;;;4.00;99.90;;;;;;4970788;28;20054;-77
2023/11/16 06:36:21;;;;;;;51.80;29.17;;;4.00;99.90;;;;;;5036988;28;20115;-77
2023/11/16 06:38:47;;;;;;;55.47;31.25;;;4.10;99.90;;;;;;5037377;28;20503;-81
2023/11/16 06:41:12;;;;;;;55.50;28.77;;;4.00;99.90;;;;;;4970581;28;20019;-77
2023/11/16 06:43:38;;;;;;;57.05;32.42;;;4.10;99.90;;;;;;4970422;28;20094;-81
2023/11/16 06:46:04;;;;;;;54.15;29.88;;;4.10;99.90;;;;;;5036015;28;20049;-77
2023/11/16 06:48:30;;;;;;;55.53;30.25;;;4.10;99.90;;;;;;4970524;28;20468;-77
2023/11/16 06:50:58;;;;;;;51.47;28.25;;;4.10;99.90;;;;;;4968734;28;20015;-77
2023/11/16 06:53:24;;;;;;;52.50;29.25;;;4.10;99.90;;;;;;5035752;28;20397;-78
2023/11/16 06:55:52;;;;;;;53.10;27.52;;;4.10;99.90;;;;;;4968665;28;20029;-81
2023/11/16 06:58:20;;;;;;;49.60;26.25;;;4.10;99.90;;;;;;4969111;28;20023;-77
2023/11/16 07:00:50;;;;;;;53.33;28.00;;;4.10;99.90;;;;;;5037266;28;20033;-81
2023/11/16 07:03:16;;;;;;;52.90;28.48;;;4.10;99.90;;;;;;4970998;28;20046;-77
2023/11/16 07:05:42;;;;;;;51.03;26.52;;;4.10;99.90;;;;;;5038729;28;20114;-81
2023/11/16 07:08:09;;;;;;;56.05;30.02;;;4.10;99.90;;;;;;4971871;28;20560;-77
2023/11/16 07:10:36;;;;;;;59.33;29.20;;;4.10;99.90;;;;;;5038813;28;20019;-81
2023/11/16 07:13:03;;;;;;;52.88;27.75;;;4.10;99.90;;;;;;4971987;28;20022;-77
2023/11/16 07:15:32;;;;;;;50.58;26.98;;;4.10;99.90;;;;;;5038724;28;20015;-81
2023/11/16 07:17:58;;;;;;;44.70;26.52;;;4.10;99.90;;;;;;4971820;28;20026;-77
2023/11/16 07:20:25;;;;;;;48.95;26.05;;;4.10;99.90;;;;;;5038942;28;20034;-76
2023/11/16 07:22:50;;;;;;;51.47;26.88;;;4.10;99.90;;;;;;4971894;28;20495;-81
2023/11/16 07:25:20;;;;;;;44.33;24.60;;;4.00;99.90;;;;;;4972251;28;20024;-77
2023/11/16 07:27:46;;;;;;;52.15;26.95;;;4.00;99.90;;;;;;4971791;28;20027;-77
2023/11/16 07:30:12;;;;;;;62.05;29.70;;;4.00;99.90;;;;;;5038857;28;20114;-77
2023/11/16 07:32:38;;;;;;;56.20;30.85;;;4.00;99.90;;;;;;4972065;28;20396;-81
2023/11/16 07:35:14;;;;;;;52.75;28.33;;;4.00;99.90;;;;;;5038536;28;20031;-81
2023/11/16 07:37:44;;;;;;;56.63;31.25;;;4.00;99.90;;;;;;5038227;28;20476;-77
2023/11/16 07:40:11;;;;;;;54.50;29.38;;;4.10;99.90;;;;;;5038497;28;20399;-77
2023/11/16 07:42:39;;;;;;;62.08;33.08;;;4.10;99.90;;;;;;5038157;28;20031;-81
2023/11/16 07:45:12;;;;;;;55.05;31.05;;;4.10;99.90;;;;;;4971781;28;20027;-77
2023/11/16 07:47:42;;;;;;;62.92;32.45;;;4.10;99.90;;;;;;5038754;28;20358;-77
2023/11/16 07:50:12;;;;;;;56.97;33.85;;;4.20;99.90;;;;;;5052753;28;20019;-77
2023/11/16 07:52:43;;;;;;;59.92;33.08;;;4.20;99.90;;;;;;5038075;28;20023;-77
2023/11/16 07:55:18;;;;;;;60.50;32.47;;;4.20;99.90;;;;;;5037746;28;20034;-81
2023/11/16 07:57:48;;;;;;;57.17;31.67;;;4.20;99.90;;;;;;4971571;28;20027;-77
2023/11/16 08:00:30;;;;;;;66.85;34.65;;;4.30;99.90;;;;;;5037590;28;20023;-77
2023/11/16 08:05:45;;;;;;;56.50;32.80;;;4.30;99.90;;;;;;4961109;28;20107;-77
2023/11/16 08:08:13;;;;;;;57.13;32.80;;;4.30;99.90;;;;;;5037765;28;20042;-81
2023/11/16 08:10:39;;;;;;;57.38;33.53;;;4.40;99.90;;;;;;5038267;28;20049;-77
2023/11/16 08:13:10;;;;;;;67.57;33.63;;;4.50;99.90;;;;;;5037848;28;20110;-81
2023/11/16 08:15:39;;;;;;;55.25;33.25;;;4.50;99.90;;;;;;5038042;28;20047;-81
2023/11/16 08:18:06;;;;;;;55.42;32.53;;;4.50;99.90;;;;;;5037630;28;20062;-77
2023/11/16 08:20:32;;;;;;;54.22;31.80;;;4.50;99.90;;;;;;5037790;28;20110;-77
2023/11/16 08:22:58;;;;;;;58.13;32.92;;;4.50;99.90;;;;;;4970761;28;20118;-81
2023/11/16 08:25:28;;;;;;;55.47;34.53;;;4.50;99.90;;;;;;4971285;28;20031;-81
2023/11/16 08:27:54;;;;;;;60.80;34.05;;;4.50;99.90;;;;;;5037661;28;20043;-81
2023/11/16 08:30:22;;;;;;;60.90;34.53;;;4.50;99.90;;;;;;5037958;28;20022;-77
2023/11/16 08:32:47;;;;;;;54.63;32.35;;;4.50;99.90;;;;;;5037597;28;20338;-77
2023/11/16 08:35:13;;;;;;;63.92;35.05;;;4.60;99.90;;;;;;5037791;28;20023;-81
2023/11/16 08:37:41;;;;;;;57.97;32.88;;;4.60;99.90;;;;;;4970511;28;20019;-81
2023/11/16 08:40:08;;;;;;;62.72;34.80;;;4.60;99.90;;;;;;4970998;28;20031;-78
2023/11/16 08:42:41;;;;;;;56.17;32.47;;;4.60;99.90;;;;;;5037482;28;20026;-81
2023/11/16 08:45:17;;;;;;;50.92;29.75;;;4.60;99.90;;;;;;4970954;28;20034;-77
2023/11/16 08:47:44;;;;;;;53.95;31.00;;;4.60;99.90;;;;;;5025294;28;20088;-77
2023/11/16 08:50:12;;;;;;;55.92;31.42;;;4.70;99.90;;;;;;4970399;28;20027;-77
2023/11/16 08:52:42;;;;;;;53.67;30.38;;;4.70;99.90;;;;;;5037898;28;20034;-81
2023/11/16 08:55:10;;;;;;;60.13;30.02;;;4.70;99.90;;;;;;4977644;28;20024;-78
2023/11/16 08:57:36;;;;;;;47.40;28.85;;;4.70;99.90;;;;;;5034447;28;20102;-81
2023/11/16 09:00:27;;;;;;;52.25;28.30;;;4.70;99.90;;;;;;5034659;28;20464;-77
2023/11/16 09:02:51;;;;;;;48.78;26.65;;;4.80;99.90;;;;;;4974094;28;20042;-81
2023/11/16 09:05:18;;;;;;;47.33;27.02;;;4.80;99.90;;;;;;5041253;28;20023;-77
2023/11/16 09:07:44;;;;;;;46.30;25.77;;;4.80;99.90;;;;;;5041484;28;20476;-77
2023/11/16 09:10:13;;;;;;;47.45;24.67;;;4.80;99.90;;;;;;5041016;28;20026;-81
2023/11/16 09:12:41;;;;;;;59.67;27.35;;;4.80;99.90;;;;;;5040989;28;20019;-81
2023/11/16 09:15:10;;;;;;;44.17;25.52;;;4.90;99.90;;;;;;5041013;28;20073;-81
2023/11/16 09:17:36;;;;;;;40.28;23.27;;;4.90;99.90;;;;;;5040975;28;20076;-77
2023/11/16 09:20:09;;;;;;;37.22;21.88;;;4.90;99.90;;;;;;5040981;28;20027;-77
2023/11/16 09:22:36;;;;;;;44.25;25.45;;;4.90;99.90;;;;;;4973708;28;20038;-81
2023/11/16 09:25:06;;;;;;;39.30;22.38;;;5.00;99.90;;;;;;5040800;28;20472;-81
2023/11/16 09:27:33;;;;;;;39.08;23.45;;;5.00;99.90;;;;;;5040900;28;20022;-81
2023/11/16 09:29:58;;;;;;;34.58;21.40;;;5.10;99.90;;;;;;5040787;28;20035;-81
2023/11/16 09:32:27;;;;;;;32.08;19.67;;;5.10;99.90;;;;;;5040579;28;20122;-81
2023/11/16 09:34:53;;;;;;;34.88;22.15;;;5.20;99.90;;;;;;5040705;28;20549;-81
2023/11/16 09:37:19;;;;;;;33.78;20.30;;;5.30;99.90;;;;;;5040312;28;20063;-77
2023/11/16 09:39:44;;;;;;;28.73;17.35;;;5.30;99.90;;;;;;4973780;28;20054;-81
2023/11/16 09:42:15;;;;;;;29.88;17.88;;;5.20;99.90;;;;;;4973193;28;20035;-77
2023/11/16 09:44:51;;;;;;;27.00;17.48;;;5.30;99.90;;;;;;5040760;28;20023;-81
2023/11/16 09:47:25;;;;;;;32.10;18.63;;;5.30;99.90;;;;;;4973418;28;20023;-77
2023/11/16 09:49:56;;;;;;;30.80;19.70;;;5.30;99.90;;;;;;5040368;28;20431;-77
2023/11/16 09:52:23;;;;;;;37.05;20.98;;;5.40;99.90;;;;;;5040379;28;20030;-81
2023/11/16 09:54:50;;;;;;;35.47;19.83;;;5.40;99.90;;;;;;4973438;28;20460;-77
2023/11/16 09:57:20;;;;;;;29.88;18.05;;;5.40;99.90;;;;;;5040189;28;20376;-77
2023/11/16 09:59:50;;;;;;;27.30;17.48;;;5.40;99.90;;;;;;5039741;28;20031;-81
2023/11/16 10:02:18;;;;;;;30.02;17.98;;;5.40;99.90;;;;;;5039988;28;20053;-82
2023/11/16 10:04:47;;;;;;;26.67;17.02;;;5.40;99.90;;;;;;4972383;28;20035;-77
2023/11/16 10:07:15;;;;;;;32.38;18.73;;;5.50;99.90;;;;;;5028144;28;20022;-82
2023/11/16 10:09:45;;;;;;;33.83;19.75;;;5.40;99.90;;;;;;5040008;28;20019;-77
2023/11/16 10:12:12;;;;;;;32.47;18.08;;;5.50;99.90;;;;;;5039574;28;20035;-81
2023/11/16 10:14:40;;;;;;;33.50;19.17;;;5.50;99.90;;;;;;4960127;28;20436;-77
2023/11/16 10:17:06;;;;;;;33.70;19.38;;;5.50;99.90;;;;;;5040018;28;20027;-81
2023/11/16 10:19:31;;;;;;;36.92;20.75;;;5.60;99.90;;;;;;5039758;28;20041;-77
2023/11/16 10:22:01;;;;;;;34.83;19.48;;;5.60;99.90;;;;;;5039739;28;20039;-82
2023/11/16 10:24:26;;;;;;;34.05;18.98;;;5.60;99.90;;;;;;5039635;28;20027;-81
2023/11/16 10:26:54;;;;;;;32.58;19.83;;;5.60;99.90;;;;;;4972857;28;20026;-81
2023/11/16 10:29:24;;;;;;;29.40;18.48;;;5.70;99.90;;;;;;4972906;28;20033;-77
2023/11/16 10:31:51;;;;;;;34.33;18.23;;;5.70;99.90;;;;;;5039572;28;20023;-81
2023/11/16 10:34:24;;;;;;;43.58;22.58;;;5.80;99.90;;;;;;5036180;28;20027;-77
2023/11/16 10:36:51;;;;;;;31.52;20.55;;;5.80;99.90;;;;;;5031390;28;20030;-77
2023/11/16 10:39:18;;;;;;;29.05;18.23;;;5.80;99.90;;;;;;5039419;28;20105;-81
2023/11/16 10:41:44;;;;;;;33.20;21.65;;;5.90;99.90;;;;;;5035937;28;20040;-77
2023/11/16 10:44:10;;;;;;;31.95;18.30;;;6.00;99.90;;;;;;5038457;28;20385;-77
2023/11/16 10:46:39;;;;;;;27.08;16.98;;;6.10;99.90;;;;;;5027966;28;20027;-77
2023/11/16 10:49:04;;;;;;;22.73;15.15;;;6.10;99.90;;;;;;5039128;28;20106;-82
2023/11/16 10:51:32;;;;;;;25.42;15.82;;;6.10;99.90;;;;;;4972621;28;20050;-77
2023/11/16 10:54:03;;;;;;;39.08;24.83;;;6.20;99.90;;;;;;4972482;28;20026;-82
2023/11/16 10:56:31;;;;;;;38.75;23.38;;;6.20;99.90;;;;;;4972368;28;20380;-81
2023/11/16 10:59:05;;;;;;;33.67;19.52;;;6.20;99.90;;;;;;4972425;28;20120;-77
2023/11/16 11:01:34;;;;;;;33.72;20.17;;;6.20;99.90;;;;;;5038764;28;20037;-81
2023/11/16 11:04:01;;;;;;;24.15;15.45;;;6.30;99.90;;;;;;4972393;28;20133;-77
2023/11/16 11:06:28;;;;;;;21.98;13.63;;;6.30;99.90;;;;;;4971829;28;20030;-81
2023/11/16 11:08:57;;;;;;;24.58;15.07;;;6.30;99.90;;;;;;4972354;28;20087;-82
2023/11/16 11:11:28;;;;;;;24.55;14.55;;;6.30;99.90;;;;;;4972111;28;20031;-77
2023/11/16 11:13:56;;;;;;;22.90;14.20;;;6.30;99.90;;;;;;4972241;28;20050;-77
2023/11/16 11:16:25;;;;;;;26.45;14.35;;;6.30;99.90;;;;;;5038727;28;20060;-77
2023/11/16 11:18:54;;;;;;;29.00;16.00;;;6.30;99.90;;;;;;5038796;28;20019;-82
2023/11/16 11:21:21;;;;;;;25.20;15.45;;;6.30;99.90;;;;;;4971772;28;20026;-81
2023/11/16 11:24:04;;;;;;;25.33;15.30;;;6.20;99.90;;;;;;5038607;28;20423;-82
2023/11/16 11:26:56;;;;;;;27.15;15.05;;;6.20;99.90;;;;;;4971977;28;20165;-82
2023/11/16 11:29:25;;;;;;;26.02;15.32;;;6.20;99.90;;;;;;4974486;28;20125;-81
2023/11/16 11:32:14;;;;;;;21.95;14.93;;;6.20;99.90;;;;;;5038522;28;20018;-81
2023/11/16 11:34:40;;;;;;;21.45;15.02;;;6.30;99.90;;;;;;4959957;28;20046;-77
2023/11/16 11:37:10;;;;;;;26.35;14.77;;;6.30;99.90;;;;;;5038075;28;20057;-77
2023/11/16 11:39:46;;;;;;;20.77;13.68;;;6.30;99.90;;;;;;5038781;28;20122;-78
2023/11/16 11:42:16;;;;;;;20.60;13.30;;;6.40;99.90;;;;;;4971462;28;20065;-81
2023/11/16 11:44:51;;;;;;;32.22;16.50;;;6.40;99.90;;;;;;5038445;28;20030;-81
2023/11/16 11:47:23;;;;;;;32.50;20.40;;;6.50;99.90;;;;;;4970782;28;20102;-82
2023/11/16 11:49:51;;;;;;;28.95;17.05;;;6.60;99.90;;;;;;4971698;28;20027;-78
2023/11/16 11:52:17;;;;;;;34.92;19.92;;;6.70;99.90;;;;;;5037603;28;20025;-81
2023/11/16 11:54:45;;;;;;;29.52;16.65;;;6.70;99.90;;;;;;5038340;28;20027;-82
2023/11/16 11:57:11;;;;;;;28.35;19.05;;;6.80;99.90;;;;;;5037980;28;20015;-77
2023/11/16 11:59:36;;;;;;;41.03;23.77;;;6.80;99.90;;;;;;4999179;28;20078;-77
2023/11/16 12:02:11;;;;;;;29.05;17.77;;;6.90;99.90;;;;;;5032806;28;20429;-77
2023/11/16 12:04:37;;;;;;;36.75;20.77;;;6.90;99.90;;;;;;5038245;28;20194;-81
2023/11/16 12:07:07;;;;;;;46.50;23.48;;;7.00;99.90;;;;;;5038171;28;20388;-78
2023/11/16 12:09:35;;;;;;;26.73;15.98;;;7.00;99.90;;;;;;5038052;28;20493;-78
2023/11/16 12:12:03;;;;;;;24.92;15.48;;;7.00;99.90;;;;;;5037905;28;20590;-77
2023/11/16 12:14:38;;;;;;;24.08;14.00;;;7.10;99.90;;;;;;5024710;28;20161;-81
2023/11/16 12:17:06;;;;;;;24.67;14.20;;;7.00;99.90;;;;;;4971386;28;20026;-78
2023/11/16 12:19:40;;;;;;;22.27;13.43;;;7.10;99.90;;;;;;5037658;28;20023;-81
2023/11/16 12:22:14;;;;;;;18.48;12.85;;;7.10;99.90;;;;;;4971167;28;20038;-77
2023/11/16 12:24:40;;;;;;;21.00;12.00;;;7.10;99.90;;;;;;5037639;28;20105;-82
2023/11/16 12:27:07;;;;;;;23.65;13.95;;;7.10;99.90;;;;;;4971130;28;20035;-81
2023/11/16 12:29:34;;;;;;;26.52;14.48;;;7.10;99.90;;;;;;4971062;28;20380;-77
2023/11/16 12:32:01;;;;;;;30.15;17.20;;;7.20;99.90;;;;;;5037674;28;20440;-77
2023/11/16 12:34:27;;;;;;;29.67;17.38;;;7.20;99.90;;;;;;5036942;28;20585;-82
2023/11/16 12:37:00;;;;;;;23.52;15.07;;;7.30;99.90;;;;;;5037534;28;20023;-77
2023/11/16 12:39:26;;;;;;;23.83;13.48;;;7.30;99.90;;;;;;5037146;28;20026;-82
2023/11/16 12:41:58;;;;;;;23.98;14.18;;;7.30;99.90;;;;;;4970750;28;20092;-78
2023/11/16 12:44:24;;;;;;;30.92;15.98;;;7.40;99.90;;;;;;5026203;28;20025;-78
2023/11/16 12:46:51;;;;;;;30.45;18.05;;;7.40;99.90;;;;;;5037407;28;20027;-77
2023/11/16 12:49:17;;;;;;;24.42;15.45;;;7.40;99.90;;;;;;5037506;28;20436;-77